Time;durP1;ratioP1;P1;durP2;ratioP2;P2;SDS_P1;SDS_P2;PMS_P1;PMS_P2;Temp;Humidity;BMP_temperature;BMP_pressure;BME280_temperature;BME280_humidity;BME280_pressure;Samples;Min_cycle;Max_cycle;Signal;HPM_P1;HPM_P2
2022/09/14 00:02:03;;;;;;;4.43;4.13;;;21.20;99.10;;;;;;10413133;28;20678;-80
2022/09/14 00:07:07;;;;;;;4.63;4.33;;;21.20;98.70;;;;;;10388340;28;20301;-80
2022/09/14 00:12:09;;;;;;;4.10;3.90;;;21.20;98.60;;;;;;10410368;28;20612;-80
2022/09/14 00:17:11;;;;;;;3.80;3.60;;;21.20;98.70;;;;;;10394791;28;20627;-80
2022/09/14 00:22:14;;;;;;;4.50;4.10;;;21.20;98.40;;;;;;10416768;28;20213;-80
2022/09/14 00:27:17;;;;;;;4.20;3.80;;;21.20;98.90;;;;;;10395789;28;20566;-80
2022/09/14 00:32:19;;;;;;;3.73;3.57;;;21.20;98.60;;;;;;10416378;28;20305;-80
2022/09/14 00:37:23;;;;;;;3.60;3.40;;;21.30;98.70;;;;;;10396914;28;20209;-80
2022/09/14 00:42:25;;;;;;;4.17;3.87;;;21.30;98.70;;;;;;10414538;28;20309;-80
2022/09/14 00:47:30;;;;;;;3.97;3.50;;;21.30;98.60;;;;;;10396397;28;20249;-79
2022/09/14 00:52:37;;;;;;;3.50;3.30;;;21.30;98.30;;;;;;10413980;28;20221;-80
2022/09/14 00:57:42;;;;;;;4.10;3.80;;;21.30;99.50;;;;;;10395862;28;20210;-80
2022/09/14 01:02:45;;;;;;;3.70;3.50;;;21.30;98.80;;;;;;10431378;28;20273;-80
2022/09/14 01:08:06;;;;;;;3.60;3.40;;;21.30;98.60;;;;;;10393019;28;20316;-80
2022/09/14 01:13:21;;;;;;;3.90;3.60;;;21.30;98.50;;;;;;10424936;28;20296;-80
2022/09/14 01:18:28;;;;;;;4.27;4.07;;;21.30;98.90;;;;;;10391609;28;20252;-80
2022/09/14 01:23:40;;;;;;;5.10;4.60;;;21.30;99.80;;;;;;10419659;28;20257;-80
2022/09/14 01:28:50;;;;;;;4.47;4.07;;;21.30;99.90;;;;;;10391227;28;20280;-78
2022/09/14 01:34:01;;;;;;;15.67;14.07;;;21.40;99.90;;;;;;10417373;28;20260;-79
2022/09/14 01:39:03;;;;;;;14.70;13.50;;;21.10;99.90;;;;;;10387575;28;20207;-79
2022/09/14 01:44:12;;;;;;;14.53;13.30;;;20.50;99.90;;;;;;10421016;28;20196;-79
2022/09/14 01:49:18;;;;;;;15.83;14.60;;;20.10;99.90;;;;;;10385829;28;20317;-80
2022/09/14 01:54:25;;;;;;;14.33;13.20;;;19.90;99.90;;;;;;10417303;28;20723;-79
2022/09/14 01:59:33;;;;;;;14.67;13.20;;;19.80;99.90;;;;;;10387452;28;20229;-79
2022/09/14 02:04:40;;;;;;;14.70;13.80;;;19.70;99.90;;;;;;10417057;28;20225;-79
2022/09/14 02:09:43;;;;;;;14.07;13.37;;;19.60;99.90;;;;;;10382209;28;20288;-79
2022/09/14 02:14:47;;;;;;;15.43;14.30;;;19.60;99.90;;;;;;10415983;28;20585;-79
2022/09/14 02:19:55;;;;;;;15.63;14.33;;;19.60;99.90;;;;;;10382448;28;20602;-79
2022/09/14 02:24:58;;;;;;;16.00;15.10;;;19.70;99.90;;;;;;10414192;28;20198;-78
2022/09/14 02:30:01;;;;;;;15.83;14.90;;;19.60;99.90;;;;;;10382434;28;20222;-79
2022/09/14 02:35:11;;;;;;;15.40;14.40;;;19.60;99.90;;;;;;10410267;28;20548;-79
2022/09/14 02:40:22;;;;;;;16.00;14.70;;;19.70;99.90;;;;;;10378426;28;20705;-79
2022/09/14 02:45:34;;;;;;;16.60;15.70;;;19.70;99.90;;;;;;10411582;28;20572;-79
2022/09/14 02:50:41;;;;;;;15.57;14.70;;;19.70;99.90;;;;;;10376093;28;20237;-78
2022/09/14 02:55:48;;;;;;;15.50;14.70;;;19.70;99.90;;;;;;10414619;28;20205;-79
2022/09/14 03:00:51;;;;;;;16.80;15.60;;;19.70;99.90;;;;;;10380133;28;20226;-79
2022/09/14 03:05:55;;;;;;;16.40;15.40;;;19.70;99.90;;;;;;10409801;28;20217;-79
2022/09/14 03:10:58;;;;;;;14.23;13.33;;;19.60;99.90;;;;;;10376220;28;20226;-79
2022/09/14 03:16:04;;;;;;;17.30;16.40;;;19.60;99.90;;;;;;10414385;28;20729;-79
2022/09/14 03:21:08;;;;;;;17.77;16.70;;;19.70;99.90;;;;;;10388002;28;20230;-79
2022/09/14 03:26:12;;;;;;;16.43;15.40;;;19.70;99.90;;;;;;10423980;28;20297;-79
2022/09/14 03:31:16;;;;;;;17.30;16.30;;;19.60;99.90;;;;;;10387149;28;20214;-79
2022/09/14 03:36:19;;;;;;;19.17;17.83;;;19.60;99.90;;;;;;10422569;28;20285;-79
2022/09/14 03:41:23;;;;;;;17.30;16.30;;;19.60;99.90;;;;;;10388264;28;20584;-79
2022/09/14 03:46:26;;;;;;;17.53;16.60;;;19.60;99.90;;;;;;10423074;28;20198;-79
2022/09/14 03:51:28;;;;;;;16.90;15.70;;;19.60;99.90;;;;;;10389384;28;20241;-79
2022/09/14 03:56:30;;;;;;;17.27;16.37;;;19.50;99.90;;;;;;10385947;28;20207;-79
2022/09/14 04:01:34;;;;;;;18.77;17.57;;;19.50;99.90;;;;;;10423039;28;20746;-79
2022/09/14 04:06:36;;;;;;;19.77;18.13;;;19.50;99.90;;;;;;10389171;28;20187;-79
2022/09/14 04:11:38;;;;;;;16.70;15.50;;;19.50;99.90;;;;;;10424580;28;20236;-79
2022/09/14 04:16:43;;;;;;;19.93;18.80;;;19.50;99.90;;;;;;10391252;28;20203;-79
2022/09/14 04:21:45;;;;;;;18.90;17.70;;;19.50;99.90;;;;;;10419255;28;20218;-78
2022/09/14 04:26:48;;;;;;;18.60;17.43;;;19.50;99.90;;;;;;10389243;28;20210;-79
2022/09/14 04:31:51;;;;;;;19.03;17.77;;;19.50;99.90;;;;;;10419606;28;20213;-79
2022/09/14 04:36:53;;;;;;;17.30;16.10;;;19.50;99.90;;;;;;10390952;28;20302;-79
2022/09/14 04:41:55;;;;;;;15.80;14.70;;;19.50;99.90;;;;;;10417798;28;20210;-79
2022/09/14 04:46:59;;;;;;;19.67;18.50;;;19.60;99.90;;;;;;10390447;28;20663;-79
2022/09/14 04:52:01;;;;;;;18.53;17.53;;;19.60;99.90;;;;;;10417709;28;20702;-79
2022/09/14 04:57:03;;;;;;;17.97;16.77;;;19.50;99.90;;;;;;10394785;28;20198;-79
2022/09/14 05:02:06;;;;;;;19.10;18.07;;;19.50;99.90;;;;;;10396964;28;20248;-79
2022/09/14 05:07:08;;;;;;;15.03;14.23;;;19.50;99.90;;;;;;10388721;28;20201;-78
2022/09/14 05:12:10;;;;;;;20.17;18.77;;;19.50;99.90;;;;;;10413575;28;20230;-79
2022/09/14 05:17:13;;;;;;;16.87;15.80;;;19.60;99.90;;;;;;10388593;28;20210;-79
2022/09/14 05:22:16;;;;;;;19.77;18.57;;;19.60;99.90;;;;;;10408548;28;20218;-79
2022/09/14 05:27:18;;;;;;;19.60;18.50;;;19.70;99.90;;;;;;10385834;28;20194;-79
2022/09/14 05:32:21;;;;;;;20.07;18.87;;;19.70;99.90;;;;;;10407316;28;20210;-79
2022/09/14 05:37:23;;;;;;;19.93;18.73;;;19.80;99.90;;;;;;10386229;28;20195;-79
2022/09/14 05:42:25;;;;;;;20.03;18.67;;;19.90;99.90;;;;;;10404684;28;20218;-79
2022/09/14 05:47:31;;;;;;;14.57;13.53;;;19.90;99.90;;;;;;10386022;28;20206;-79
2022/09/14 05:52:33;;;;;;;20.07;18.47;;;19.90;99.90;;;;;;10404469;28;20252;-79
2022/09/14 05:57:35;;;;;;;17.87;16.47;;;20.00;99.90;;;;;;10386174;28;20194;-79
2022/09/14 06:02:38;;;;;;;22.07;20.30;;;20.00;99.90;;;;;;10403032;28;20216;-79
2022/09/14 06:07:41;;;;;;;21.83;20.50;;;20.10;99.90;;;;;;10385148;28;20199;-79
2022/09/14 06:12:43;;;;;;;21.47;20.03;;;20.10;99.90;;;;;;10386385;28;20252;-78
2022/09/14 06:17:46;;;;;;;22.03;20.20;;;20.20;99.90;;;;;;10403356;28;20200;-79
2022/09/14 06:22:48;;;;;;;20.87;19.60;;;20.30;99.90;;;;;;10415280;28;20570;-79
2022/09/14 06:27:53;;;;;;;22.10;20.60;;;20.30;99.90;;;;;;10393509;28;20219;-79
2022/09/14 06:32:57;;;;;;;21.90;20.40;;;20.40;99.90;;;;;;10408306;28;20222;-79
2022/09/14 06:37:59;;;;;;;21.33;19.73;;;20.50;99.90;;;;;;10394322;28;20313;-79
2022/09/14 06:43:01;;;;;;;20.33;18.90;;;20.60;99.90;;;;;;10406576;28;20601;-79
2022/09/14 06:48:05;;;;;;;20.70;19.30;;;20.70;99.90;;;;;;10394994;28;20293;-79
2022/09/14 06:53:07;;;;;;;20.90;19.60;;;20.80;99.90;;;;;;10407909;28;20209;-79
2022/09/14 06:58:09;;;;;;;13.67;12.83;;;20.80;99.90;;;;;;10393040;28;20301;-79
2022/09/14 07:03:12;;;;;;;18.87;17.80;;;20.90;99.90;;;;;;10404954;28;20738;-79
2022/09/14 07:08:14;;;;;;;16.53;15.43;;;21.00;99.90;;;;;;10391702;28;20230;-79
2022/09/14 07:13:16;;;;;;;15.67;14.50;;;21.10;99.90;;;;;;10405824;28;20216;-79
2022/09/14 07:18:21;;;;;;;17.20;16.20;;;21.20;99.90;;;;;;10395183;28;20242;-79
2022/09/14 07:23:23;;;;;;;15.07;14.17;;;21.30;99.90;;;;;;10403131;28;20293;-79
2022/09/14 07:28:25;;;;;;;13.87;12.87;;;21.40;99.90;;;;;;10394428;28;20301;-79
2022/09/14 07:33:29;;;;;;;14.30;13.40;;;21.50;99.90;;;;;;10400048;28;20716;-79
2022/09/14 07:38:31;;;;;;;13.33;12.63;;;21.50;99.90;;;;;;10395792;28;20215;-79
2022/09/14 07:43:33;;;;;;;15.17;14.27;;;21.60;99.90;;;;;;10401159;28;20233;-79
2022/09/14 07:48:37;;;;;;;13.30;12.20;;;21.60;99.90;;;;;;10396815;28;20305;-79
2022/09/14 07:53:41;;;;;;;13.67;12.93;;;21.70;99.90;;;;;;10402221;28;20229;-79
2022/09/14 07:58:44;;;;;;;13.40;12.60;;;21.70;99.90;;;;;;10399530;28;20229;-79
2022/09/14 08:03:48;;;;;;;12.97;12.07;;;21.80;99.90;;;;;;10402214;28;20236;-79
2022/09/14 08:08:51;;;;;;;9.60;8.90;;;21.80;99.90;;;;;;10401134;28;20237;-79
2022/09/14 08:13:55;;;;;;;10.70;10.00;;;22.10;99.90;;;;;;10406262;28;20217;-79
2022/09/14 08:19:04;;;;;;;11.33;10.63;;;22.30;99.90;;;;;;10404202;28;20214;-79
2022/09/14 08:24:06;;;;;;;11.23;10.53;;;22.50;99.90;;;;;;10406878;28;20193;-80
2022/09/14 08:29:08;;;;;;;10.20;9.60;;;22.70;99.90;;;;;;10404928;28;20371;-79
2022/09/14 08:34:12;;;;;;;8.77;8.30;;;22.90;99.90;;;;;;10423253;28;20218;-80
2022/09/14 08:39:15;;;;;;;8.70;8.10;;;23.20;99.90;;;;;;10403454;28;20210;-79
2022/09/14 08:44:22;;;;;;;8.10;7.37;;;23.40;99.90;;;;;;10420099;28;20198;-80
2022/09/14 08:49:36;;;;;;;5.47;4.97;;;23.40;99.90;;;;;;10404712;28;20667;-80
2022/09/14 08:54:38;;;;;;;6.83;6.43;;;23.40;99.90;;;;;;10405872;28;20222;-79
2022/09/14 08:59:49;;;;;;;7.10;6.50;;;23.20;99.90;;;;;;10400634;28;20210;-79
2022/09/14 09:04:57;;;;;;;7.00;6.60;;;23.20;99.90;;;;;;10405032;28;20186;-80
2022/09/14 09:10:00;;;;;;;7.37;6.73;;;23.10;99.90;;;;;;10428031;23;20224;-81
2022/09/14 09:15:06;;;;;;;7.17;6.77;;;23.00;99.90;;;;;;10418297;28;20220;-81
2022/09/14 09:20:17;;;;;;;6.77;6.27;;;22.90;99.90;;;;;;10417938;28;20222;-81
2022/09/14 09:25:22;;;;;;;6.00;5.70;;;22.90;99.90;;;;;;10394461;28;20241;-80
2022/09/14 09:30:25;;;;;;;6.53;6.13;;;22.90;99.90;;;;;;10402159;28;20237;-80
2022/09/14 09:35:32;;;;;;;6.30;5.90;;;23.00;99.90;;;;;;10400878;28;20228;-80
2022/09/14 09:40:43;;;;;;;6.53;6.03;;;23.20;99.90;;;;;;10393203;28;20273;-81
2022/09/14 09:45:50;;;;;;;6.30;5.80;;;23.60;99.90;;;;;;10400421;28;20701;-79
2022/09/14 09:51:07;;;;;;;7.40;6.70;;;24.00;99.90;;;;;;10393381;28;20577;-80
2022/09/14 09:56:17;;;;;;;5.87;5.07;;;24.40;99.90;;;;;;10376879;28;20229;-81
2022/09/14 10:01:23;;;;;;;6.53;6.00;;;24.60;99.90;;;;;;10386027;28;20225;-80
2022/09/14 10:06:26;;;;;;;6.30;6.00;;;24.70;99.90;;;;;;10389415;28;20244;-80
2022/09/14 10:11:35;;;;;;;6.30;5.90;;;24.80;99.90;;;;;;10403200;28;20643;-81
2022/09/14 10:16:40;;;;;;;5.47;5.07;;;24.60;99.90;;;;;;10390424;28;20222;-81
2022/09/14 10:22:04;;;;;;;5.67;5.37;;;24.50;99.90;;;;;;10405545;28;20217;-80
2022/09/14 10:27:31;;;;;;;6.77;6.20;;;24.50;99.90;;;;;;10387615;28;20498;-80
2022/09/14 10:32:36;;;;;;;4.63;4.33;;;24.60;99.90;;;;;;10374790;28;20222;-80
2022/09/14 10:37:52;;;;;;;6.67;6.27;;;24.60;99.90;;;;;;10375725;28;20221;-80
2022/09/14 10:43:08;;;;;;;5.80;5.30;;;24.60;99.90;;;;;;10376440;28;20202;-81
2022/09/14 10:48:42;;;;;;;6.63;5.97;;;24.60;99.90;;;;;;10412318;28;20259;-82
2022/09/14 10:53:53;;;;;;;5.87;5.40;;;24.70;99.90;;;;;;10377108;28;20221;-80
2022/09/14 10:59:23;;;;;;;5.60;5.30;;;24.70;99.90;;;;;;10417195;28;20218;-81
2022/09/14 11:04:45;;;;;;;5.90;5.30;;;24.80;99.90;;;;;;10378676;28;20225;-81
2022/09/14 11:09:55;;;;;;;6.10;5.57;;;24.80;99.90;;;;;;10399791;28;20229;-81
2022/09/14 11:15:07;;;;;;;5.70;5.40;;;24.90;99.90;;;;;;10387992;28;20210;-81
2022/09/14 11:20:24;;;;;;;4.70;4.40;;;25.00;99.90;;;;;;10414792;28;20222;-81
2022/09/14 11:25:36;;;;;;;5.30;5.00;;;25.00;99.90;;;;;;10371997;28;20280;-81
2022/09/14 11:30:41;;;;;;;5.60;5.37;;;25.00;99.90;;;;;;10412517;28;20241;-81
2022/09/14 11:35:47;;;;;;;5.90;5.60;;;25.00;99.90;;;;;;10391130;28;20282;-81
2022/09/14 11:40:56;;;;;;;4.47;4.07;;;25.00;99.90;;;;;;10404394;28;20308;-80
2022/09/14 11:46:06;;;;;;;5.63;5.23;;;25.00;99.90;;;;;;10398766;28;20190;-81
2022/09/14 11:51:14;;;;;;;5.57;5.30;;;25.00;99.90;;;;;;10442267;28;20226;-81
2022/09/14 11:56:25;;;;;;;4.93;4.63;;;25.10;99.90;;;;;;10434274;28;20221;-80
2022/09/14 12:01:31;;;;;;;4.83;4.53;;;25.30;99.90;;;;;;10433900;28;20214;-80
2022/09/14 12:06:57;;;;;;;4.73;4.33;;;25.30;99.90;;;;;;10391497;28;20693;-80
2022/09/14 12:12:02;;;;;;;5.37;5.07;;;25.30;99.90;;;;;;10406754;28;20230;-80
2022/09/14 12:17:16;;;;;;;5.43;5.03;;;25.30;99.90;;;;;;10397868;28;20624;-80
2022/09/14 12:22:30;;;;;;;4.83;4.53;;;25.30;99.90;;;;;;10408311;28;20211;-80
2022/09/14 12:27:37;;;;;;;4.97;4.57;;;25.30;99.90;;;;;;10403764;28;20221;-81
2022/09/14 12:32:41;;;;;;;6.53;5.60;;;25.30;99.90;;;;;;10408689;28;20706;-81
2022/09/14 12:37:44;;;;;;;6.43;5.90;;;25.30;99.90;;;;;;10402185;28;20720;-81
2022/09/14 12:42:47;;;;;;;5.60;5.20;;;25.10;99.90;;;;;;10411956;28;20222;-81
2022/09/14 12:47:51;;;;;;;6.00;5.60;;;24.80;99.90;;;;;;10400573;28;20225;-81
2022/09/14 12:53:20;;;;;;;5.70;5.30;;;24.60;99.90;;;;;;10408839;28;20215;-81
2022/09/14 12:58:47;;;;;;;5.73;5.23;;;24.30;99.90;;;;;;10405186;28;20793;-81
2022/09/14 13:03:51;;;;;;;8.50;5.50;;;24.00;99.90;;;;;;10406047;28;20198;-80
2022/09/14 13:08:57;;;;;;;6.57;6.17;;;23.50;99.90;;;;;;10404171;28;20698;-80
2022/09/14 13:14:02;;;;;;;6.23;5.10;;;23.10;99.90;;;;;;10403999;28;20218;-81
2022/09/14 13:19:18;;;;;;;7.10;4.77;;;22.80;99.90;;;;;;10404826;28;20636;-81
2022/09/14 13:24:27;;;;;;;8.40;7.90;;;22.50;99.90;;;;;;10400693;28;20205;-79
2022/09/14 13:29:32;;;;;;;7.30;6.77;;;22.30;99.90;;;;;;10400726;28;20217;-79
2022/09/14 13:34:37;;;;;;;9.80;9.27;;;22.10;99.90;;;;;;10391962;28;20214;-80
2022/09/14 13:39:49;;;;;;;9.97;9.20;;;22.00;99.90;;;;;;10375699;28;20770;-79
2022/09/14 13:44:55;;;;;;;9.20;8.57;;;22.00;99.90;;;;;;10403439;28;20654;-82
2022/09/14 13:50:01;;;;;;;6.23;5.73;;;22.00;99.90;;;;;;10393285;28;20268;-82
2022/09/14 13:55:19;;;;;;;9.90;9.20;;;22.10;99.90;;;;;;10401184;28;20667;-80
2022/09/14 14:00:23;;;;;;;7.77;7.37;;;22.00;99.90;;;;;;10389681;28;20225;-80
2022/09/14 14:05:28;;;;;;;9.30;8.53;;;22.00;99.90;;;;;;10403835;28;20216;-78
2022/09/14 14:10:33;;;;;;;7.17;6.50;;;22.00;99.90;;;;;;10392390;28;20330;-81
2022/09/14 14:15:40;;;;;;;7.90;7.40;;;22.00;99.90;;;;;;10404746;28;20717;-81
2022/09/14 14:20:42;;;;;;;8.43;7.90;;;22.00;99.90;;;;;;10389830;28;20225;-79
2022/09/14 14:25:47;;;;;;;7.60;7.10;;;22.00;99.90;;;;;;10402865;28;20186;-79
2022/09/14 14:30:53;;;;;;;6.63;6.33;;;22.10;99.90;;;;;;10389329;28;20215;-79
2022/09/14 14:35:56;;;;;;;6.07;5.77;;;22.10;99.90;;;;;;10405146;28;20288;-79
2022/09/14 14:40:58;;;;;;;7.17;6.77;;;22.20;99.90;;;;;;10392068;28;20217;-79
2022/09/14 14:46:06;;;;;;;6.17;5.87;;;22.20;99.90;;;;;;10405743;28;20194;-81
2022/09/14 14:51:12;;;;;;;6.00;5.70;;;22.20;99.90;;;;;;10389547;28;20206;-79
2022/09/14 14:56:14;;;;;;;7.57;7.07;;;22.20;99.90;;;;;;10403676;28;20300;-81
2022/09/14 15:01:18;;;;;;;6.47;6.00;;;22.20;99.90;;;;;;10380947;28;20250;-81
2022/09/14 15:06:23;;;;;;;5.07;4.60;;;22.10;99.90;;;;;;10403752;28;20198;-79
2022/09/14 15:11:25;;;;;;;6.50;6.00;;;22.00;99.90;;;;;;10441296;22;20604;-78
2022/09/14 15:16:28;;;;;;;6.00;5.80;;;21.70;99.90;;;;;;10424338;28;20209;-78
2022/09/14 15:21:30;;;;;;;6.03;5.67;;;21.50;99.90;;;;;;10399865;28;20210;-80
2022/09/14 15:26:33;;;;;;;5.43;5.13;;;21.40;99.90;;;;;;10416103;28;20240;-80
2022/09/14 15:31:37;;;;;;;6.47;6.17;;;21.20;99.90;;;;;;10408625;28;20302;-80
2022/09/14 15:36:42;;;;;;;6.13;5.93;;;21.20;99.90;;;;;;10418364;28;20218;-81
2022/09/14 15:41:44;;;;;;;7.27;6.87;;;21.20;99.90;;;;;;10409426;28;20222;-80
2022/09/14 15:46:48;;;;;;;6.23;5.93;;;21.20;99.90;;;;;;10417578;28;20214;-80
2022/09/14 15:51:52;;;;;;;5.83;5.50;;;21.20;99.90;;;;;;10409613;28;20305;-80
2022/09/14 15:56:58;;;;;;;5.63;5.43;;;21.10;99.90;;;;;;10417690;28;20217;-80
2022/09/14 16:02:01;;;;;;;4.33;4.13;;;21.10;99.90;;;;;;10414109;28;20229;-80
2022/09/14 16:07:08;;;;;;;4.70;4.50;;;21.20;99.90;;;;;;10416528;28;20232;-80
2022/09/14 16:12:12;;;;;;;4.80;4.60;;;21.20;99.90;;;;;;10412771;28;20233;-79
2022/09/14 16:17:15;;;;;;;3.80;3.70;;;21.20;99.90;;;;;;10420639;28;20309;-80
2022/09/14 16:22:18;;;;;;;4.03;3.87;;;21.20;99.90;;;;;;10407655;28;20246;-80
2022/09/14 16:27:20;;;;;;;4.00;3.80;;;21.10;99.90;;;;;;10407287;28;20201;-80
2022/09/14 16:32:24;;;;;;;4.50;4.20;;;21.00;99.90;;;;;;10396721;28;20301;-80
2022/09/14 16:37:26;;;;;;;3.93;3.73;;;21.10;99.90;;;;;;10399761;28;20301;-80
2022/09/14 16:42:28;;;;;;;4.30;4.10;;;21.10;99.90;;;;;;10395786;28;20698;-80
2022/09/14 16:47:32;;;;;;;2.47;2.27;;;21.10;99.90;;;;;;10400827;28;20193;-80
2022/09/14 16:52:34;;;;;;;4.27;3.97;;;21.20;99.90;;;;;;10397068;28;20225;-80
2022/09/14 16:57:36;;;;;;;3.70;3.50;;;21.20;99.90;;;;;;10400152;28;20248;-80
2022/09/14 17:02:39;;;;;;;3.77;3.57;;;21.20;99.90;;;;;;10399030;28;20781;-80
2022/09/14 17:07:41;;;;;;;3.60;3.50;;;21.20;99.90;;;;;;10400234;28;20260;-80
2022/09/14 17:12:45;;;;;;;4.00;3.80;;;21.20;99.90;;;;;;10400258;28;20662;-80
2022/09/14 17:17:49;;;;;;;3.60;3.30;;;21.10;99.90;;;;;;10396339;28;20194;-80
2022/09/14 17:22:51;;;;;;;4.13;3.83;;;21.10;99.90;;;;;;10378768;28;20713;-79
2022/09/14 17:27:53;;;;;;;4.70;4.40;;;21.10;99.90;;;;;;10395716;28;20309;-79
2022/09/14 17:32:56;;;;;;;4.30;4.00;;;21.00;99.90;;;;;;10398080;28;20214;-79
2022/09/14 17:37:58;;;;;;;3.90;3.70;;;21.00;99.90;;;;;;10395969;28;20198;-79
2022/09/14 17:43:00;;;;;;;6.10;4.17;;;21.00;99.90;;;;;;10401755;28;20214;-79
2022/09/14 17:48:04;;;;;;;2.77;1.90;;;21.00;99.90;;;;;;10395164;28;20552;-79
2022/09/14 17:53:06;;;;;;;4.20;3.87;;;21.00;99.90;;;;;;10381711;28;20578;-79
2022/09/14 17:58:09;;;;;;;3.87;3.67;;;20.90;99.90;;;;;;10396945;28;20622;-79
2022/09/14 18:03:12;;;;;;;4.27;3.97;;;20.90;99.90;;;;;;10398932;28;20233;-79
2022/09/14 18:08:14;;;;;;;5.27;3.70;;;20.90;99.90;;;;;;10373787;28;20210;-79
2022/09/14 18:13:16;;;;;;;4.67;4.37;;;20.90;99.90;;;;;;10399321;28;20194;-79
2022/09/14 18:18:20;;;;;;;2.90;2.70;;;20.90;99.90;;;;;;10390726;28;20350;-79
2022/09/14 18:23:22;;;;;;;3.80;3.50;;;20.90;99.90;;;;;;10402797;28;20718;-78
2022/09/14 18:28:24;;;;;;;4.60;4.40;;;20.90;99.90;;;;;;10390720;28;20205;-78
2022/09/14 18:33:28;;;;;;;3.60;3.40;;;20.90;99.90;;;;;;10396165;28;20297;-78
2022/09/14 18:38:30;;;;;;;4.40;4.20;;;20.90;99.90;;;;;;10386385;28;20225;-78
2022/09/14 18:43:32;;;;;;;6.67;4.60;;;21.00;99.90;;;;;;10396516;28;20234;-78
2022/09/14 18:48:35;;;;;;;4.10;3.80;;;21.00;99.90;;;;;;10372104;28;20782;-78
2022/09/14 18:53:38;;;;;;;2.30;2.20;;;20.90;99.90;;;;;;10385840;28;20232;-78
2022/09/14 18:58:44;;;;;;;3.70;3.40;;;21.00;99.90;;;;;;10398934;28;20268;-79
2022/09/14 19:03:47;;;;;;;4.83;4.40;;;21.00;99.90;;;;;;10391933;28;20233;-79
2022/09/14 19:08:50;;;;;;;5.83;3.77;;;21.00;99.90;;;;;;10404331;28;20230;-78
2022/09/14 19:13:56;;;;;;;3.80;3.60;;;21.00;99.90;;;;;;10391874;28;20285;-79
2022/09/14 19:18:59;;;;;;;3.97;3.77;;;20.90;99.90;;;;;;10405023;28;20218;-79
2022/09/14 19:24:05;;;;;;;6.03;3.60;;;21.00;99.90;;;;;;10391732;28;20236;-79
2022/09/14 19:29:07;;;;;;;4.23;4.03;;;21.00;99.90;;;;;;10404570;28;20626;-79
2022/09/14 19:34:11;;;;;;;4.63;3.57;;;21.00;99.90;;;;;;10391134;28;20572;-78
2022/09/14 19:39:14;;;;;;;4.13;3.83;;;20.90;99.90;;;;;;10389911;28;20253;-79
2022/09/14 19:44:16;;;;;;;3.70;3.50;;;20.90;99.90;;;;;;10389762;28;20731;-79
2022/09/14 19:49:24;;;;;;;5.17;4.77;;;20.90;99.90;;;;;;10404955;28;20317;-79
2022/09/14 19:54:27;;;;;;;5.70;5.30;;;20.80;99.90;;;;;;10389735;28;20210;-79
2022/09/14 19:59:29;;;;;;;6.40;6.00;;;20.80;99.90;;;;;;10407861;28;20297;-79
2022/09/14 20:04:32;;;;;;;4.33;3.97;;;20.80;99.90;;;;;;10396537;28;20196;-80
2022/09/14 20:09:34;;;;;;;4.10;3.80;;;20.70;99.90;;;;;;10410496;28;20236;-79
2022/09/14 20:14:36;;;;;;;3.90;3.60;;;20.70;99.90;;;;;;10393952;28;20206;-79
2022/09/14 20:19:40;;;;;;;4.37;4.07;;;20.70;99.90;;;;;;10414404;28;20230;-79
2022/09/14 20:24:42;;;;;;;4.10;3.80;;;20.70;99.90;;;;;;10393224;28;20724;-79
2022/09/14 20:29:44;;;;;;;4.23;4.00;;;20.60;99.90;;;;;;10414712;28;20630;-79
2022/09/14 20:34:48;;;;;;;3.83;3.63;;;20.60;99.90;;;;;;10402117;28;20676;-78
2022/09/14 20:39:50;;;;;;;4.17;3.87;;;20.70;99.90;;;;;;10416072;28;20223;-79
2022/09/14 20:44:52;;;;;;;3.53;3.33;;;20.70;99.90;;;;;;10394254;28;20217;-79
2022/09/14 20:49:55;;;;;;;3.77;3.57;;;20.70;99.90;;;;;;10416850;28;20218;-79
2022/09/14 20:54:57;;;;;;;4.30;3.80;;;20.70;99.90;;;;;;10393077;28;20583;-78
2022/09/14 21:00:00;;;;;;;4.27;4.07;;;20.70;99.90;;;;;;10398970;28;20298;-79
2022/09/14 21:05:03;;;;;;;4.10;3.60;;;20.60;99.90;;;;;;10391974;28;20229;-79
2022/09/14 21:10:08;;;;;;;5.97;4.73;;;20.70;99.90;;;;;;10413298;28;20297;-79
2022/09/14 21:15:11;;;;;;;5.53;4.10;;;20.70;99.90;;;;;;10388636;28;20253;-78
2022/09/14 21:20:14;;;;;;;4.30;4.00;;;20.60;99.90;;;;;;10415492;28;20218;-79
2022/09/14 21:25:16;;;;;;;4.47;4.20;;;20.60;99.90;;;;;;10389071;28;20186;-79
2022/09/14 21:30:18;;;;;;;4.30;4.10;;;20.60;99.90;;;;;;10400178;28;20210;-79
2022/09/14 21:35:22;;;;;;;4.37;4.07;;;20.70;99.90;;;;;;10391895;28;20270;-79
2022/09/14 21:40:24;;;;;;;4.23;4.03;;;20.70;99.90;;;;;;10424278;28;20241;-78
2022/09/14 21:45:26;;;;;;;4.50;4.27;;;20.70;99.90;;;;;;10423386;28;20195;-79
2022/09/14 21:50:29;;;;;;;4.07;3.80;;;20.70;99.90;;;;;;10386364;28;20225;-79
2022/09/14 21:55:31;;;;;;;3.90;3.70;;;20.80;99.90;;;;;;10415418;28;20339;-79
2022/09/14 22:00:34;;;;;;;5.10;4.80;;;20.70;99.90;;;;;;10386098;28;20221;-79
2022/09/14 22:05:37;;;;;;;4.53;4.20;;;20.70;99.90;;;;;;10426372;28;20195;-78
2022/09/14 22:10:40;;;;;;;4.30;4.10;;;20.70;99.90;;;;;;10384945;28;20244;-79
2022/09/14 22:15:42;;;;;;;4.80;4.40;;;20.70;99.90;;;;;;10418404;28;20219;-79
2022/09/14 22:20:45;;;;;;;4.13;3.83;;;20.70;99.90;;;;;;10382781;28;20214;-79
2022/09/14 22:25:47;;;;;;;4.60;4.40;;;20.70;99.90;;;;;;10416265;28;20193;-79
2022/09/14 22:30:53;;;;;;;4.63;4.33;;;20.60;99.90;;;;;;10382656;28;20214;-79
2022/09/14 22:35:59;;;;;;;5.00;4.53;;;20.60;99.90;;;;;;10417867;28;20222;-79
2022/09/14 22:41:03;;;;;;;4.30;4.10;;;20.60;99.90;;;;;;10382818;28;20241;-79
2022/09/14 22:46:06;;;;;;;5.77;5.23;;;20.60;99.90;;;;;;10422705;28;20472;-78
2022/09/14 22:51:12;;;;;;;7.77;4.73;;;20.60;99.90;;;;;;10364684;28;20682;-78
2022/09/14 22:56:17;;;;;;;5.77;5.37;;;20.60;99.90;;;;;;10418789;28;20214;-78
2022/09/14 23:01:21;;;;;;;5.93;5.43;;;20.60;99.90;;;;;;10381086;28;20215;-79
2022/09/14 23:06:27;;;;;;;5.17;4.73;;;20.70;99.90;;;;;;10414371;28;20252;-79
2022/09/14 23:11:32;;;;;;;5.37;5.07;;;20.70;99.90;;;;;;10362692;28;20209;-79
2022/09/14 23:16:34;;;;;;;5.20;4.90;;;20.70;99.90;;;;;;10417034;28;20218;-79
2022/09/14 23:21:37;;;;;;;5.43;5.00;;;20.70;99.90;;;;;;10379394;28;20234;-79
2022/09/14 23:26:39;;;;;;;5.70;5.30;;;20.70;99.90;;;;;;10418045;28;20186;-78
2022/09/14 23:31:42;;;;;;;5.63;5.27;;;20.60;99.90;;;;;;10380561;28;20214;-79
2022/09/14 23:36:45;;;;;;;4.97;4.60;;;20.60;99.90;;;;;;10430333;28;20281;-79
2022/09/14 23:41:47;;;;;;;5.93;5.63;;;20.60;99.90;;;;;;10432636;28;20217;-79
2022/09/14 23:46:49;;;;;;;4.60;4.40;;;20.60;99.90;;;;;;10395091;28;20183;-79
2022/09/14 23:51:52;;;;;;;5.13;4.73;;;20.60;99.90;;;;;;10428196;28;20661;-79
2022/09/14 23:56:54;;;;;;;4.53;4.33;;;20.60;99.90;;;;;;10424835;28;20666;-79
